Time;durP1;ratioP1;P1;durP2;ratioP2;P2;SDS_P1;SDS_P2;PMS_P1;PMS_P2;Temp;Humidity;BMP_temperature;BMP_pressure;BME280_temperature;BME280_humidity;BME280_pressure;Samples;Min_cycle;Max_cycle;Signal;HPM_P1;HPM_P2
2021/12/02 00:02:00;;;;;;;0.25;0.10;;;18.70;56.40;;;;;;4951971;28;20186;-84
2021/12/02 00:04:27;;;;;;;0.75;0.10;;;18.70;56.40;;;;;;4951341;29;20099;-85
2021/12/02 00:06:53;;;;;;;0.75;0.10;;;18.70;56.40;;;;;;4950133;28;20086;-84
2021/12/02 00:09:18;;;;;;;0.73;0.10;;;18.70;56.40;;;;;;4952041;28;20051;-84
2021/12/02 00:11:44;;;;;;;1.20;0.10;;;18.80;56.50;;;;;;4950251;28;20043;-84
2021/12/02 00:14:11;;;;;;;0.15;0.00;;;18.70;56.40;;;;;;4943563;28;20058;-84
2021/12/02 00:16:40;;;;;;;1.13;0.20;;;18.70;56.40;;;;;;4948604;28;20071;-84
2021/12/02 00:21:53;;;;;;;1.40;0.17;;;18.70;56.40;;;;;;4941020;28;20055;-85
2021/12/02 00:24:19;;;;;;;0.20;0.00;;;18.70;56.40;;;;;;4950888;29;20090;-85
2021/12/02 00:26:45;;;;;;;0.60;0.10;;;18.70;56.40;;;;;;4951527;28;20054;-84
2021/12/02 00:29:11;;;;;;;1.00;0.10;;;18.60;56.40;;;;;;4951136;29;20106;-85
2021/12/02 00:31:38;;;;;;;0.17;0.00;;;18.60;56.30;;;;;;4950712;29;20407;-84
2021/12/02 00:34:05;;;;;;;0.50;0.10;;;18.70;56.40;;;;;;4951664;28;20058;-87
2021/12/02 00:36:33;;;;;;;0.70;0.10;;;18.70;56.40;;;;;;4951000;29;20076;-84
2021/12/02 00:39:00;;;;;;;0.45;0.20;;;18.60;56.30;;;;;;4951970;28;20055;-85
2021/12/02 00:41:27;;;;;;;0.47;0.03;;;18.70;56.40;;;;;;4949655;29;20499;-85
2021/12/02 00:43:53;;;;;;;0.22;0.00;;;18.70;56.40;;;;;;4950460;29;20059;-84
2021/12/02 00:46:20;;;;;;;1.38;0.20;;;18.70;56.50;;;;;;4932836;28;20051;-85
2021/12/02 00:48:46;;;;;;;1.02;0.30;;;18.60;56.40;;;;;;4949989;29;20062;-84
2021/12/02 00:51:12;;;;;;;0.73;0.20;;;18.70;56.40;;;;;;4951700;28;20051;-85
2021/12/02 00:53:44;;;;;;;0.90;0.20;;;18.60;56.40;;;;;;4934447;29;20053;-84
2021/12/02 00:56:11;;;;;;;0.98;0.20;;;18.70;56.50;;;;;;4948007;28;20098;-84
2021/12/02 00:58:36;;;;;;;1.08;0.20;;;18.70;56.50;;;;;;4950118;28;20912;-84
2021/12/02 01:01:02;;;;;;;0.65;0.10;;;18.70;56.50;;;;;;4934199;29;20134;-84
2021/12/02 01:03:37;;;;;;;1.20;0.20;;;18.70;56.50;;;;;;4949784;29;20844;-85
2021/12/02 01:06:04;;;;;;;0.20;0.10;;;18.60;56.50;;;;;;4950506;29;20043;-85
2021/12/02 01:08:30;;;;;;;1.88;0.47;;;18.70;56.50;;;;;;4950096;28;20055;-85
2021/12/02 01:10:56;;;;;;;0.52;0.10;;;18.60;56.40;;;;;;4951010;28;20435;-85
2021/12/02 01:13:21;;;;;;;0.80;0.17;;;18.60;56.40;;;;;;4947862;28;20078;-85
2021/12/02 01:15:47;;;;;;;0.55;0.10;;;18.60;56.40;;;;;;4949955;29;20146;-85
2021/12/02 01:18:14;;;;;;;0.57;0.10;;;18.70;56.50;;;;;;4951657;28;20058;-84
2021/12/02 01:20:39;;;;;;;0.25;0.10;;;18.60;56.40;;;;;;4951605;28;20047;-84
2021/12/02 01:23:05;;;;;;;0.40;0.10;;;18.60;56.40;;;;;;4939464;28;20064;-85
2021/12/02 01:25:31;;;;;;;0.90;0.05;;;18.90;56.60;;;;;;4937903;29;20047;-85
2021/12/02 01:27:57;;;;;;;0.55;0.10;;;19.80;57.10;;;;;;4922149;29;20059;-84
2021/12/02 01:30:24;;;;;;;1.33;0.10;;;18.60;56.40;;;;;;4954683;28;20035;-85
2021/12/02 01:32:49;;;;;;;0.30;0.10;;;18.70;56.50;;;;;;4922141;29;20043;-85
2021/12/02 01:35:15;;;;;;;0.40;0.10;;;18.60;56.40;;;;;;4937777;29;20114;-85
2021/12/02 01:37:41;;;;;;;1.10;0.20;;;18.60;56.40;;;;;;4937431;29;20039;-85
2021/12/02 01:40:07;;;;;;;0.65;0.10;;;18.70;56.40;;;;;;4937677;29;20561;-84
2021/12/02 01:42:34;;;;;;;0.38;0.00;;;18.60;56.40;;;;;;4954590;28;20054;-85
2021/12/02 01:45:00;;;;;;;0.50;0.15;;;18.60;56.40;;;;;;4937196;29;20070;-84
2021/12/02 01:47:27;;;;;;;1.05;0.10;;;18.60;56.40;;;;;;4921612;29;20083;-84
2021/12/02 01:49:58;;;;;;;0.40;0.08;;;18.60;56.40;;;;;;4953708;28;20047;-85
2021/12/02 01:52:30;;;;;;;0.88;0.40;;;18.60;56.40;;;;;;4952681;29;20071;-84
2021/12/02 01:55:08;;;;;;;0.52;0.17;;;18.60;56.40;;;;;;4953816;29;20146;-87
2021/12/02 01:57:35;;;;;;;0.40;0.00;;;18.60;56.40;;;;;;4938759;29;20078;-86
2021/12/02 02:00:14;;;;;;;0.90;0.10;;;18.60;56.40;;;;;;4953165;29;20051;-86
2021/12/02 02:02:40;;;;;;;0.73;0.20;;;18.60;56.40;;;;;;4953398;29;20055;-85
2021/12/02 02:05:11;;;;;;;1.38;0.08;;;18.60;56.40;;;;;;4953768;28;20054;-85
2021/12/02 02:07:57;;;;;;;0.60;0.20;;;18.60;56.40;;;;;;4953649;29;20273;-86
2021/12/02 02:10:23;;;;;;;0.80;0.20;;;18.60;56.40;;;;;;4953382;29;20889;-86
2021/12/02 02:12:49;;;;;;;0.82;0.10;;;18.60;56.40;;;;;;4952314;29;20403;-86
2021/12/02 02:15:14;;;;;;;0.60;0.10;;;18.60;56.40;;;;;;4953266;29;20051;-84
2021/12/02 02:17:57;;;;;;;0.50;0.10;;;18.60;56.50;;;;;;4936984;28;20078;-84
2021/12/02 02:20:37;;;;;;;0.57;0.10;;;18.60;56.40;;;;;;4953812;28;20043;-84
2021/12/02 02:23:05;;;;;;;0.95;0.20;;;18.60;56.40;;;;;;4953103;29;20067;-85
2021/12/02 02:25:31;;;;;;;0.50;0.10;;;18.60;56.50;;;;;;4952830;28;20577;-85
2021/12/02 02:27:56;;;;;;;0.95;0.08;;;18.60;56.40;;;;;;4952135;29;20207;-85
2021/12/02 02:30:22;;;;;;;0.63;0.20;;;18.60;56.50;;;;;;4952861;29;20047;-86
2021/12/02 02:32:47;;;;;;;0.10;0.03;;;18.60;56.50;;;;;;4952547;29;20154;-85
2021/12/02 02:35:13;;;;;;;0.63;0.20;;;18.60;56.50;;;;;;4951108;28;20051;-84
2021/12/02 02:37:39;;;;;;;0.52;0.10;;;18.60;56.50;;;;;;4952961;28;20043;-85
2021/12/02 02:40:06;;;;;;;0.90;0.10;;;18.60;56.50;;;;;;4952548;29;20050;-85
2021/12/02 02:42:32;;;;;;;0.77;0.15;;;18.60;56.40;;;;;;4952992;28;20055;-85
2021/12/02 02:44:58;;;;;;;0.38;0.10;;;18.60;56.50;;;;;;4952472;28;20047;-85
2021/12/02 02:47:26;;;;;;;0.88;0.03;;;18.60;56.50;;;;;;4949059;28;20114;-85
2021/12/02 02:49:52;;;;;;;0.47;0.10;;;18.60;56.40;;;;;;4953666;28;20062;-85
2021/12/02 02:52:17;;;;;;;0.65;0.10;;;18.60;56.50;;;;;;4953600;28;20047;-86
2021/12/02 02:54:43;;;;;;;0.30;0.05;;;18.60;56.40;;;;;;4951778;29;20055;-85
2021/12/02 02:57:11;;;;;;;0.73;0.10;;;18.60;56.40;;;;;;4936256;29;20057;-85
2021/12/02 03:02:30;;;;;;;0.40;0.10;;;18.60;56.40;;;;;;4937448;29;20459;-85
2021/12/02 03:05:08;;;;;;;0.03;0.00;;;18.60;56.40;;;;;;4952406;28;20142;-85
2021/12/02 03:07:38;;;;;;;0.13;0.00;;;18.60;56.40;;;;;;4952058;28;20391;-85
2021/12/02 03:10:23;;;;;;;0.60;0.10;;;18.60;56.40;;;;;;4936390;29;20047;-85
2021/12/02 03:17:43;;;;;;;0.70;0.10;;;18.60;56.40;;;;;;4951313;28;20070;-85
2021/12/02 03:20:09;;;;;;;0.70;0.13;;;18.60;56.50;;;;;;4952068;29;20055;-85
2021/12/02 03:22:35;;;;;;;0.25;0.10;;;18.60;56.40;;;;;;4951536;28;20125;-85
2021/12/02 03:25:01;;;;;;;1.08;0.10;;;18.60;56.40;;;;;;4953312;28;20039;-86
2021/12/02 03:27:26;;;;;;;0.30;0.05;;;18.60;56.40;;;;;;4953200;28;20566;-85
2021/12/02 03:29:52;;;;;;;0.45;0.10;;;18.60;56.40;;;;;;4950902;28;20106;-85
2021/12/02 03:32:18;;;;;;;0.30;0.10;;;18.60;56.40;;;;;;4951407;29;20129;-85
2021/12/02 03:34:43;;;;;;;0.20;0.00;;;18.60;56.40;;;;;;4951574;28;20070;-85
2021/12/02 03:37:09;;;;;;;0.43;0.10;;;18.60;56.40;;;;;;4951060;29;20066;-85
2021/12/02 03:39:35;;;;;;;0.50;0.10;;;18.60;56.40;;;;;;4951481;29;20043;-85
2021/12/02 03:42:02;;;;;;;0.70;0.10;;;18.60;56.40;;;;;;4951843;29;20047;-85
2021/12/02 03:44:28;;;;;;;0.45;0.08;;;18.60;56.40;;;;;;4951935;28;20075;-85
2021/12/02 03:46:54;;;;;;;0.43;0.00;;;18.60;56.40;;;;;;4965827;28;20463;-85
2021/12/02 03:49:20;;;;;;;0.30;0.03;;;18.60;56.40;;;;;;4951623;29;20055;-85
2021/12/02 03:51:45;;;;;;;0.15;0.00;;;18.60;56.40;;;;;;4950546;29;20043;-85
2021/12/02 03:54:11;;;;;;;0.55;0.03;;;18.60;56.40;;;;;;4952668;28;20380;-85
2021/12/02 03:56:36;;;;;;;0.00;0.00;;;18.60;56.40;;;;;;4952634;28;20045;-85
2021/12/02 03:59:02;;;;;;;0.82;0.17;;;18.60;56.40;;;;;;4943812;28;20061;-85
2021/12/02 04:01:28;;;;;;;0.85;0.10;;;18.60;56.40;;;;;;4953228;28;20110;-83
2021/12/02 04:03:53;;;;;;;0.40;0.10;;;18.60;56.40;;;;;;4952258;28;20052;-83
2021/12/02 04:06:19;;;;;;;0.55;0.10;;;18.60;56.40;;;;;;4950293;29;20051;-84
2021/12/02 04:11:34;;;;;;;0.43;0.10;;;18.70;56.50;;;;;;4952152;28;20054;-84
2021/12/02 04:14:07;;;;;;;0.35;0.00;;;18.60;56.40;;;;;;4950425;29;20078;-84
2021/12/02 04:16:35;;;;;;;0.52;0.10;;;18.60;56.40;;;;;;4952261;28;20046;-84
2021/12/02 04:19:05;;;;;;;0.40;0.10;;;18.60;56.40;;;;;;4949438;28;20055;-84
2021/12/02 04:21:30;;;;;;;0.32;0.10;;;18.60;56.40;;;;;;4950577;29;20039;-84
2021/12/02 04:23:56;;;;;;;0.77;0.10;;;18.60;56.40;;;;;;4951945;28;20565;-84
2021/12/02 04:26:21;;;;;;;0.30;0.00;;;18.70;56.50;;;;;;4950049;29;20384;-84
2021/12/02 04:28:47;;;;;;;0.10;0.00;;;18.70;56.50;;;;;;4951907;28;20043;-84
2021/12/02 04:31:12;;;;;;;0.20;0.00;;;18.60;56.40;;;;;;4952064;28;20102;-84
2021/12/02 04:33:38;;;;;;;0.10;0.00;;;18.60;56.40;;;;;;4949720;29;20062;-85
2021/12/02 04:36:04;;;;;;;0.30;0.05;;;18.70;56.50;;;;;;4950575;29;20051;-84
2021/12/02 04:38:30;;;;;;;0.40;0.10;;;18.70;56.40;;;;;;4951406;28;20047;-84
2021/12/02 04:40:55;;;;;;;1.00;0.40;;;18.60;56.40;;;;;;4952490;28;20058;-85
2021/12/02 04:43:21;;;;;;;0.20;0.00;;;18.70;56.40;;;;;;4950471;29;20051;-84
2021/12/02 04:45:47;;;;;;;0.80;0.05;;;18.70;56.40;;;;;;4950701;29;20343;-85
2021/12/02 04:48:14;;;;;;;0.30;0.10;;;19.60;57.00;;;;;;4949900;29;20122;-85
2021/12/02 04:50:39;;;;;;;0.40;0.00;;;18.70;56.40;;;;;;4951940;28;20101;-85
2021/12/02 04:53:05;;;;;;;0.17;0.00;;;18.70;56.40;;;;;;4951494;28;20446;-85
2021/12/02 04:55:31;;;;;;;0.10;0.00;;;18.70;56.50;;;;;;4949334;28;20058;-82
2021/12/02 04:57:56;;;;;;;0.45;0.10;;;18.60;56.40;;;;;;4952180;28;20047;-85
2021/12/02 05:00:22;;;;;;;0.30;0.03;;;18.70;56.40;;;;;;4957669;28;20039;-84
2021/12/02 05:02:47;;;;;;;0.22;0.00;;;18.70;56.40;;;;;;4956093;29;20073;-85
2021/12/02 05:05:13;;;;;;;0.10;0.00;;;18.70;56.40;;;;;;4956995;29;20065;-84
2021/12/02 05:07:38;;;;;;;0.32;0.00;;;18.60;56.40;;;;;;4956633;28;20053;-83
2021/12/02 05:10:05;;;;;;;0.30;0.10;;;18.60;56.40;;;;;;4956158;28;20111;-84
2021/12/02 05:12:30;;;;;;;0.05;0.00;;;18.60;56.40;;;;;;4957730;28;20050;-84
2021/12/02 05:14:56;;;;;;;0.10;0.00;;;18.60;56.40;;;;;;4957180;28;20073;-84
2021/12/02 05:17:21;;;;;;;0.32;0.00;;;18.70;56.40;;;;;;4956357;29;20495;-85
2021/12/02 05:19:47;;;;;;;0.57;0.00;;;18.60;56.40;;;;;;4957866;28;20050;-85
2021/12/02 05:22:13;;;;;;;0.25;0.08;;;18.70;56.40;;;;;;4956058;28;20051;-85
2021/12/02 05:24:38;;;;;;;0.15;0.00;;;18.60;56.40;;;;;;4957670;28;20058;-85
2021/12/02 05:27:04;;;;;;;0.43;0.10;;;18.70;56.40;;;;;;4940658;28;20090;-84
2021/12/02 05:29:30;;;;;;;0.13;0.00;;;18.70;56.40;;;;;;4975015;28;20074;-85
2021/12/02 05:31:55;;;;;;;0.22;0.00;;;18.70;56.40;;;;;;4975940;28;20083;-85
2021/12/02 05:34:21;;;;;;;0.15;0.00;;;18.70;56.40;;;;;;4975598;28;20502;-87
2021/12/02 05:36:46;;;;;;;0.00;0.00;;;18.70;56.40;;;;;;4975185;28;20050;-86
2021/12/02 05:39:12;;;;;;;0.43;0.00;;;18.70;56.40;;;;;;4976966;28;20046;-87
2021/12/02 05:41:37;;;;;;;0.30;0.10;;;18.70;56.40;;;;;;4975554;28;21080;-86
2021/12/02 05:44:03;;;;;;;0.00;0.00;;;18.70;56.40;;;;;;4976498;28;20074;-86
2021/12/02 05:46:29;;;;;;;0.32;0.10;;;18.70;56.40;;;;;;4971152;28;20055;-87
2021/12/02 05:48:55;;;;;;;0.40;0.00;;;18.70;56.40;;;;;;4956451;29;20051;-87
2021/12/02 05:51:20;;;;;;;0.35;0.10;;;18.70;56.40;;;;;;4955898;29;20066;-87
2021/12/02 05:53:46;;;;;;;0.60;0.08;;;18.70;56.40;;;;;;4957492;28;20126;-86
2021/12/02 05:56:11;;;;;;;0.55;0.00;;;18.70;56.40;;;;;;4956309;28;20051;-87
2021/12/02 05:58:37;;;;;;;0.20;0.05;;;18.70;56.40;;;;;;4955801;29;20055;-86
2021/12/02 06:01:02;;;;;;;0.00;0.00;;;18.70;56.40;;;;;;4957393;28;20557;-87
2021/12/02 06:03:28;;;;;;;0.10;0.00;;;18.70;56.40;;;;;;4957419;28;20187;-87
2021/12/02 06:05:54;;;;;;;0.15;0.00;;;18.70;56.40;;;;;;4955758;29;20069;-88
2021/12/02 06:08:19;;;;;;;0.13;0.00;;;18.70;56.40;;;;;;4956423;28;20085;-87
2021/12/02 06:10:45;;;;;;;0.10;0.00;;;18.70;56.40;;;;;;4952526;28;20066;-86
2021/12/02 06:13:10;;;;;;;0.10;0.00;;;18.70;56.40;;;;;;4952371;28;20075;-86
2021/12/02 06:15:36;;;;;;;0.00;0.00;;;18.70;56.40;;;;;;4953184;28;20054;-86
2021/12/02 06:18:01;;;;;;;0.10;0.00;;;18.90;56.50;;;;;;4952797;28;20082;-85
2021/12/02 06:20:27;;;;;;;0.50;0.13;;;18.70;56.40;;;;;;4952743;29;20051;-86
2021/12/02 06:22:52;;;;;;;0.63;0.00;;;18.70;56.40;;;;;;4953043;28;20058;-85
2021/12/02 06:27:48;;;;;;;0.10;0.00;;;18.70;56.40;;;;;;4952727;28;20063;-86
2021/12/02 06:30:15;;;;;;;0.05;0.00;;;18.70;56.40;;;;;;4947691;28;20403;-86
2021/12/02 06:32:41;;;;;;;0.20;0.00;;;18.70;56.40;;;;;;4926365;29;20058;-86
2021/12/02 06:35:07;;;;;;;0.05;0.00;;;18.70;56.40;;;;;;4941126;28;20040;-86
2021/12/02 06:37:33;;;;;;;0.22;0.00;;;18.70;56.30;;;;;;4949719;29;20486;-86
2021/12/02 06:39:58;;;;;;;0.00;0.00;;;18.70;56.30;;;;;;4945323;28;20047;-86
2021/12/02 06:42:24;;;;;;;0.20;0.00;;;18.70;56.40;;;;;;4923296;29;20059;-86
2021/12/02 06:44:49;;;;;;;0.20;0.10;;;18.70;56.40;;;;;;4967316;28;20055;-85
2021/12/02 06:47:15;;;;;;;0.20;0.00;;;18.70;56.30;;;;;;4959045;28;20140;-85
2021/12/02 06:49:41;;;;;;;0.17;0.00;;;18.70;56.30;;;;;;4953223;28;20577;-87
2021/12/02 06:52:12;;;;;;;0.22;0.00;;;18.70;56.40;;;;;;4949423;28;20138;-87
2021/12/02 06:54:37;;;;;;;0.00;0.00;;;20.00;57.00;;;;;;4951362;29;20050;-86
2021/12/02 06:57:03;;;;;;;0.20;0.00;;;18.70;56.30;;;;;;4953497;28;20391;-86
2021/12/02 06:59:29;;;;;;;0.17;0.00;;;18.70;56.30;;;;;;4936490;29;20055;-85
2021/12/02 07:01:55;;;;;;;0.40;0.00;;;18.70;56.30;;;;;;4951535;28;20134;-85
2021/12/02 07:04:21;;;;;;;0.65;0.00;;;18.70;56.30;;;;;;4952486;28;20075;-85
2021/12/02 07:06:46;;;;;;;0.10;0.00;;;18.70;56.40;;;;;;4954562;28;20034;-84
2021/12/02 07:09:12;;;;;;;0.17;0.00;;;18.70;56.40;;;;;;4955145;28;20062;-87
2021/12/02 07:11:38;;;;;;;0.10;0.00;;;18.70;56.30;;;;;;4969044;28;20058;-86
2021/12/02 07:14:06;;;;;;;0.98;0.08;;;20.50;57.40;;;;;;4972253;28;20454;-87
2021/12/02 07:16:32;;;;;;;0.05;0.00;;;18.70;56.30;;;;;;4971071;28;20051;-86
2021/12/02 07:18:59;;;;;;;0.13;0.03;;;18.70;56.30;;;;;;4971188;28;20108;-86
2021/12/02 07:21:24;;;;;;;0.17;0.00;;;18.80;56.40;;;;;;4937694;28;20082;-84
2021/12/02 07:23:51;;;;;;;0.30;0.00;;;18.70;56.30;;;;;;4926760;28;20082;-84
2021/12/02 07:26:16;;;;;;;0.10;0.00;;;18.70;56.30;;;;;;4922603;29;20486;-83
2021/12/02 07:28:44;;;;;;;0.75;0.03;;;18.70;56.30;;;;;;4923851;29;20047;-83
2021/12/02 07:31:10;;;;;;;0.08;0.00;;;18.70;56.30;;;;;;4926497;29;20047;-83
2021/12/02 07:33:37;;;;;;;0.22;0.10;;;18.80;56.40;;;;;;4933722;29;20590;-84
2021/12/02 07:36:03;;;;;;;0.03;0.00;;;18.70;56.30;;;;;;4940760;29;20057;-84
2021/12/02 07:38:29;;;;;;;0.28;0.00;;;18.80;56.40;;;;;;4933806;29;20047;-83
2021/12/02 07:40:54;;;;;;;0.28;0.00;;;18.80;56.40;;;;;;4940972;29;20479;-84
2021/12/02 07:43:21;;;;;;;0.10;0.00;;;18.80;56.40;;;;;;4905602;29;20167;-83
2021/12/02 07:45:47;;;;;;;0.43;0.00;;;18.70;56.40;;;;;;4949696;29;20043;-84
2021/12/02 07:48:13;;;;;;;0.28;0.00;;;18.70;56.30;;;;;;4953090;28;20085;-83
2021/12/02 07:50:39;;;;;;;0.32;0.10;;;18.70;56.30;;;;;;4935998;28;20154;-84
2021/12/02 07:53:06;;;;;;;0.20;0.00;;;18.70;56.30;;;;;;4946791;28;20123;-84
2021/12/02 07:55:33;;;;;;;0.20;0.03;;;18.50;56.20;;;;;;4912869;29;20048;-84
2021/12/02 07:57:59;;;;;;;0.50;0.10;;;18.70;56.30;;;;;;4913582;29;20055;-85
2021/12/02 08:00:26;;;;;;;0.13;0.00;;;18.70;56.30;;;;;;4917287;29;20051;-84
2021/12/02 08:02:53;;;;;;;0.60;0.00;;;18.70;56.30;;;;;;4933955;28;20052;-85
2021/12/02 08:05:21;;;;;;;0.30;0.00;;;18.70;56.30;;;;;;4931324;29;20060;-84
2021/12/02 08:07:47;;;;;;;0.15;0.00;;;18.70;56.30;;;;;;4932029;29;20055;-84
2021/12/02 08:10:13;;;;;;;0.43;0.05;;;18.70;56.30;;;;;;4923847;28;20066;-84
2021/12/02 08:12:40;;;;;;;0.00;0.00;;;18.70;56.30;;;;;;4924590;29;20384;-84
2021/12/02 08:15:07;;;;;;;0.10;0.00;;;18.70;56.30;;;;;;4922397;29;20051;-85
2021/12/02 08:17:33;;;;;;;1.75;0.10;;;18.70;56.30;;;;;;4920571;29;20052;-88
2021/12/02 08:19:58;;;;;;;0.17;0.00;;;18.70;56.30;;;;;;4907324;29;20566;-84
2021/12/02 08:22:24;;;;;;;0.38;0.10;;;18.70;56.30;;;;;;4930006;29;20047;-85
2021/12/02 08:24:49;;;;;;;0.70;0.10;;;18.70;56.20;;;;;;4931851;29;20716;-85
2021/12/02 08:27:15;;;;;;;0.77;0.10;;;18.70;56.30;;;;;;4930157;29;20143;-85
2021/12/02 08:29:42;;;;;;;1.63;0.10;;;18.70;56.40;;;;;;4912505;29;20083;-85
2021/12/02 08:32:08;;;;;;;1.63;0.17;;;18.70;56.40;;;;;;4912726;29;20107;-85
2021/12/02 08:34:33;;;;;;;1.10;0.20;;;18.70;56.40;;;;;;4915113;28;20451;-85
2021/12/02 08:36:59;;;;;;;1.15;0.10;;;18.70;56.40;;;;;;4931630;29;20090;-86
2021/12/02 08:39:26;;;;;;;0.75;0.20;;;18.70;56.40;;;;;;4931179;29;20043;-84
2021/12/02 08:41:54;;;;;;;1.00;0.13;;;18.70;56.40;;;;;;4944981;28;20044;-86
2021/12/02 08:44:20;;;;;;;0.38;0.10;;;18.60;56.20;;;;;;4919706;29;20435;-87
2021/12/02 08:46:49;;;;;;;1.17;0.30;;;18.70;56.30;;;;;;4922750;29;20052;-86
2021/12/02 08:49:16;;;;;;;0.95;0.13;;;18.70;56.20;;;;;;4924392;29;20507;-88
2021/12/02 08:51:42;;;;;;;0.60;0.10;;;18.70;56.30;;;;;;4918912;29;20044;-84
2021/12/02 08:54:07;;;;;;;3.38;0.43;;;18.70;56.30;;;;;;4928860;29;20248;-85
2021/12/02 08:56:33;;;;;;;0.82;0.10;;;18.70;56.30;;;;;;4916875;29;20067;-85
2021/12/02 08:58:59;;;;;;;0.50;0.13;;;18.70;56.20;;;;;;4913778;29;20048;-84
2021/12/02 09:01:27;;;;;;;0.65;0.10;;;18.80;56.40;;;;;;4922419;29;20051;-85
2021/12/02 09:03:52;;;;;;;0.47;0.10;;;18.70;56.30;;;;;;4925686;29;20044;-85
2021/12/02 09:06:22;;;;;;;0.47;0.10;;;18.70;56.40;;;;;;4920559;29;20058;-84
2021/12/02 09:08:47;;;;;;;0.90;0.10;;;18.70;56.40;;;;;;4930841;29;20480;-85
2021/12/02 09:11:13;;;;;;;1.73;0.20;;;18.80;56.30;;;;;;4928137;29;20111;-85
2021/12/02 09:13:38;;;;;;;0.52;0.10;;;18.70;56.30;;;;;;4913591;29;20044;-85
2021/12/02 09:16:04;;;;;;;1.25;0.15;;;18.80;56.30;;;;;;4911775;29;20052;-85
2021/12/02 09:18:30;;;;;;;1.08;0.13;;;18.70;56.20;;;;;;4912386;29;20654;-85
2021/12/02 09:20:57;;;;;;;0.47;0.00;;;18.80;56.30;;;;;;4913784;29;20095;-85
2021/12/02 09:23:22;;;;;;;0.55;0.20;;;18.80;56.20;;;;;;4920629;29;20052;-85
2021/12/02 09:25:48;;;;;;;0.22;0.08;;;18.70;56.20;;;;;;4914847;29;20087;-85
2021/12/02 09:28:15;;;;;;;1.25;0.10;;;18.80;56.20;;;;;;4928064;29;20063;-86
2021/12/02 09:30:41;;;;;;;0.98;0.10;;;18.80;56.30;;;;;;4920278;29;20051;-86
2021/12/02 09:33:07;;;;;;;0.10;0.00;;;18.80;56.20;;;;;;4929087;29;20044;-86
2021/12/02 09:35:33;;;;;;;1.38;0.40;;;18.70;56.20;;;;;;4929098;29;20057;-86
2021/12/02 09:37:58;;;;;;;0.40;0.10;;;18.70;56.20;;;;;;4930995;28;20064;-86
2021/12/02 09:40:24;;;;;;;0.63;0.10;;;18.80;56.20;;;;;;4931152;29;20621;-86
2021/12/02 09:42:49;;;;;;;0.57;0.10;;;18.80;56.20;;;;;;4930389;29;20047;-86
2021/12/02 09:45:15;;;;;;;0.93;0.20;;;18.80;56.20;;;;;;4933803;29;20062;-86
2021/12/02 09:47:43;;;;;;;0.20;0.00;;;18.70;56.20;;;;;;4934526;29;20043;-85
2021/12/02 09:50:21;;;;;;;0.50;0.15;;;18.80;56.20;;;;;;4934531;29;20071;-86
2021/12/02 09:52:46;;;;;;;0.50;0.10;;;18.70;56.20;;;;;;4934528;29;20051;-85
2021/12/02 09:58:05;;;;;;;0.77;0.20;;;18.80;56.20;;;;;;4935053;29;20135;-86
2021/12/02 10:00:48;;;;;;;0.10;0.00;;;18.70;56.20;;;;;;4934336;29;20109;-85
2021/12/02 10:06:00;;;;;;;0.65;0.10;;;18.70;56.20;;;;;;4953385;29;20061;-86
2021/12/02 10:08:29;;;;;;;0.65;0.10;;;18.70;56.20;;;;;;4953243;29;20043;-85
2021/12/02 10:11:06;;;;;;;1.58;0.15;;;18.70;56.10;;;;;;4952850;29;20063;-86
2021/12/02 10:13:44;;;;;;;1.02;0.20;;;18.70;56.10;;;;;;4953099;29;20598;-86
2021/12/02 10:16:24;;;;;;;0.15;0.00;;;18.70;56.20;;;;;;4952731;28;20066;-86
2021/12/02 10:19:10;;;;;;;0.30;0.00;;;18.70;56.10;;;;;;4952362;28;20103;-86
2021/12/02 10:21:46;;;;;;;0.25;0.00;;;18.70;56.10;;;;;;4953164;29;20106;-85
2021/12/02 10:24:16;;;;;;;0.63;0.10;;;18.70;56.20;;;;;;4953108;29;20601;-85
2021/12/02 10:26:53;;;;;;;0.10;0.00;;;18.70;56.10;;;;;;4952417;29;20133;-85
2021/12/02 10:29:38;;;;;;;0.98;0.10;;;18.70;56.20;;;;;;4954267;28;20051;-85
2021/12/02 10:32:06;;;;;;;1.02;0.10;;;18.70;56.10;;;;;;4965785;28;20063;-86
2021/12/02 10:34:31;;;;;;;0.68;0.10;;;18.70;56.10;;;;;;4947341;28;20846;-86
2021/12/02 10:37:08;;;;;;;0.17;0.05;;;20.30;57.00;;;;;;4944519;28;20133;-85
2021/12/02 10:39:36;;;;;;;0.38;0.03;;;18.70;56.80;;;;;;4957496;28;20600;-87
2021/12/02 10:42:05;;;;;;;0.35;0.10;;;18.70;56.00;;;;;;4965231;28;20062;-87
2021/12/02 10:44:34;;;;;;;0.30;0.10;;;18.70;56.10;;;;;;5021998;23;20062;-85
2021/12/02 10:47:11;;;;;;;0.65;0.10;;;18.70;56.10;;;;;;4970631;28;20077;-84
2021/12/02 10:49:42;;;;;;;0.10;0.10;;;18.70;56.00;;;;;;4972186;28;20605;-85
2021/12/02 10:52:16;;;;;;;1.03;0.10;;;18.70;56.00;;;;;;4972374;28;20097;-85
2021/12/02 10:54:44;;;;;;;0.57;0.10;;;18.70;56.10;;;;;;4985421;28;20579;-85
2021/12/02 10:57:18;;;;;;;0.52;0.05;;;18.70;56.10;;;;;;4990590;28;20041;-85
2021/12/02 10:59:48;;;;;;;0.20;0.00;;;18.70;56.10;;;;;;4990682;28;20046;-85
2021/12/02 11:02:20;;;;;;;0.40;0.10;;;18.70;56.10;;;;;;4993496;28;20065;-85
2021/12/02 11:04:47;;;;;;;0.52;0.00;;;18.70;56.00;;;;;;4973766;28;20461;-81
2021/12/02 11:07:24;;;;;;;0.47;0.10;;;18.70;56.10;;;;;;4959886;28;20070;-83
2021/12/02 11:09:51;;;;;;;0.10;0.10;;;18.70;56.00;;;;;;4959796;28;20736;-79
2021/12/02 11:12:19;;;;;;;0.50;0.10;;;18.70;56.00;;;;;;4960210;28;20090;-79
2021/12/02 11:15:01;;;;;;;0.95;0.00;;;18.70;56.10;;;;;;4959636;28;20063;-79
2021/12/02 11:17:30;;;;;;;0.55;0.10;;;18.70;56.10;;;;;;4969976;28;20053;-85
2021/12/02 11:19:56;;;;;;;0.22;0.00;;;18.70;56.20;;;;;;4970504;28;20058;-85
2021/12/02 11:22:22;;;;;;;1.75;0.10;;;18.70;56.10;;;;;;4970358;28;20102;-86
2021/12/02 11:24:48;;;;;;;2.10;0.10;;;18.70;56.00;;;;;;4970929;28;20046;-86
2021/12/02 11:27:20;;;;;;;1.90;0.10;;;18.60;56.00;;;;;;4971099;28;20082;-86
2021/12/02 11:29:57;;;;;;;0.17;0.00;;;19.60;56.60;;;;;;4970688;28;20046;-86
2021/12/02 11:32:23;;;;;;;0.20;0.00;;;18.60;56.10;;;;;;4970249;28;20054;-86
2021/12/02 11:35:05;;;;;;;0.15;0.03;;;18.70;56.00;;;;;;4971589;28;20050;-87
2021/12/02 11:37:32;;;;;;;0.25;0.08;;;18.70;56.20;;;;;;4971943;28;20486;-85
2021/12/02 11:40:22;;;;;;;0.35;0.10;;;18.60;56.20;;;;;;4959823;28;20078;-85
2021/12/02 11:42:49;;;;;;;1.63;0.20;;;18.60;56.10;;;;;;4971600;28;20050;-85
2021/12/02 11:45:16;;;;;;;1.25;0.17;;;18.60;56.20;;;;;;4956573;28;20503;-85
2021/12/02 11:47:41;;;;;;;1.08;0.10;;;20.20;57.00;;;;;;4934490;28;20150;-85
2021/12/02 11:50:09;;;;;;;0.47;0.10;;;18.60;56.20;;;;;;4895325;28;20634;-81
2021/12/02 11:52:36;;;;;;;0.90;0.10;;;18.60;56.00;;;;;;4957185;28;20487;-83
2021/12/02 11:55:04;;;;;;;0.32;0.00;;;18.60;56.00;;;;;;4945101;28;20537;-84
2021/12/02 11:57:33;;;;;;;1.38;0.05;;;18.60;56.00;;;;;;4950407;29;20059;-84
2021/12/02 11:59:58;;;;;;;1.13;0.10;;;18.60;56.00;;;;;;4932713;29;20055;-89
2021/12/02 12:02:27;;;;;;;0.20;0.10;;;18.50;56.10;;;;;;4936411;29;20407;-87
2021/12/02 12:05:01;;;;;;;0.30;0.00;;;18.90;56.30;;;;;;4912836;29;20053;-86
2021/12/02 12:07:38;;;;;;;0.90;0.15;;;18.50;56.10;;;;;;4897491;28;20094;-87
2021/12/02 12:10:20;;;;;;;2.13;0.10;;;19.10;56.40;;;;;;4949373;28;20118;-85
2021/12/02 12:12:46;;;;;;;0.68;0.10;;;18.60;56.10;;;;;;5024019;23;21329;-85
2021/12/02 12:15:35;;;;;;;4.07;0.30;;;18.60;56.10;;;;;;4992399;28;20172;-85
2021/12/02 12:18:01;;;;;;;0.30;0.10;;;18.50;56.00;;;;;;5007408;28;20129;-90
2021/12/02 12:20:58;;;;;;;0.57;0.10;;;18.60;56.00;;;;;;5009576;28;20136;-89
2021/12/02 12:23:59;;;;;;;0.30;0.00;;;18.60;56.10;;;;;;5013239;28;20061;-88
2021/12/02 12:26:27;;;;;;;0.05;0.00;;;18.50;56.00;;;;;;5008584;28;20060;-89
2021/12/02 12:29:06;;;;;;;0.13;0.00;;;18.60;56.00;;;;;;5008688;28;20057;-90
2021/12/02 12:32:05;;;;;;;0.30;0.10;;;19.90;56.70;;;;;;5007087;28;20057;-88
2021/12/02 12:34:47;;;;;;;1.10;0.00;;;18.50;56.00;;;;;;4988261;28;20050;-88
2021/12/02 12:37:21;;;;;;;0.57;0.00;;;18.50;55.90;;;;;;4993473;28;20114;-89
2021/12/02 12:40:25;;;;;;;0.45;0.10;;;18.50;55.70;;;;;;5005033;28;20436;-88
2021/12/02 12:42:57;;;;;;;0.47;0.08;;;18.60;55.80;;;;;;5004744;28;20034;-87
2021/12/02 12:45:36;;;;;;;0.82;0.00;;;19.60;56.30;;;;;;5006708;28;20301;-87
2021/12/02 12:48:03;;;;;;;0.65;0.10;;;18.60;55.80;;;;;;4987252;28;20495;-87
2021/12/02 12:50:30;;;;;;;0.22;0.10;;;18.60;55.80;;;;;;4979435;28;20630;-87
2021/12/02 12:53:19;;;;;;;0.32;0.10;;;19.60;56.40;;;;;;4989559;28;20505;-87
2021/12/02 12:55:52;;;;;;;0.20;0.00;;;18.60;55.80;;;;;;4989907;28;20070;-89
2021/12/02 12:58:22;;;;;;;0.55;0.03;;;18.60;55.90;;;;;;4990405;28;20144;-89
2021/12/02 13:00:50;;;;;;;0.50;0.10;;;18.50;55.80;;;;;;4988796;28;20085;-84
2021/12/02 13:03:22;;;;;;;0.73;0.10;;;18.60;55.60;;;;;;4976788;28;20053;-85
2021/12/02 13:05:59;;;;;;;3.83;0.13;;;18.60;55.80;;;;;;4999042;28;20045;-86
2021/12/02 13:08:37;;;;;;;0.75;0.30;;;18.50;55.50;;;;;;5008654;28;20045;-87
2021/12/02 13:11:10;;;;;;;2.95;0.20;;;18.50;55.60;;;;;;5009549;28;20046;-85
2021/12/02 13:13:36;;;;;;;2.60;0.20;;;18.80;55.90;;;;;;5006876;28;20054;-85
2021/12/02 13:16:18;;;;;;;2.00;0.20;;;18.50;54.10;;;;;;4992311;28;20050;-85